createdAt,value
2023-02-24T00:02:15.258Z,61.22
2023-02-24T00:04:44.060Z,54.12
2023-02-24T00:07:14.086Z,52.17
2023-02-24T00:09:44.900Z,54.29
2023-02-24T00:12:16.243Z,56.42
2023-02-24T00:14:46.960Z,58.82
2023-02-24T00:17:19.883Z,60.76
2023-02-24T00:19:48.903Z,68.94
2023-02-24T00:22:17.464Z,71.23
2023-02-24T00:24:47.172Z,63.98
2023-02-24T00:27:15.328Z,58.53
2023-02-24T00:29:47.437Z,52.67
2023-02-24T00:32:15.573Z,52.64
2023-02-24T00:34:45.821Z,54.85
2023-02-24T00:37:15.385Z,55.69
2023-02-24T00:39:45.941Z,56.69
2023-02-24T00:42:15.018Z,58.13
2023-02-24T00:44:47.738Z,59.58
2023-02-24T00:47:17.799Z,61.54
2023-02-24T00:49:46.332Z,68.44
2023-02-24T00:52:22.814Z,75.22
2023-02-24T00:54:51.025Z,68.29
2023-02-24T00:57:24.020Z,62.24
2023-02-24T00:59:52.279Z,55.23
2023-02-24T01:02:20.606Z,52.58
2023-02-24T01:04:50.050Z,53.95
2023-02-24T01:07:19.017Z,55.10
2023-02-24T01:09:50.919Z,57.58
2023-02-24T01:12:38.930Z,59.51
2023-02-24T01:15:09.283Z,69.02
2023-02-24T01:17:38.571Z,71.47
2023-02-24T01:20:19.319Z,63.63
2023-02-24T01:22:54.397Z,56.58
2023-02-24T01:25:22.789Z,53.20
2023-02-24T01:27:50.635Z,53.99
2023-02-24T01:30:19.017Z,56.43
2023-02-24T01:32:47.741Z,57.79
2023-02-24T01:35:19.119Z,59.18
2023-02-24T01:37:46.977Z,58.30
2023-02-24T01:40:21.598Z,60.54
2023-02-24T01:42:50.384Z,69.41
2023-02-24T01:45:29.882Z,71.56
2023-02-24T01:48:05.440Z,62.27
2023-02-24T01:50:37.610Z,53.71
2023-02-24T01:53:08.727Z,52.84
2023-02-24T01:55:47.176Z,54.75
2023-02-24T01:58:29.050Z,55.40
2023-02-24T02:00:58.158Z,57.23
2023-02-24T02:03:35.188Z,63.47
2023-02-24T02:06:11.479Z,69.12
2023-02-24T02:08:43.287Z,66.63
2023-02-24T02:11:21.368Z,60.83
2023-02-24T02:13:55.479Z,53.48
2023-02-24T02:17:25.076Z,53.92
2023-02-24T02:20:17.326Z,55.14
2023-02-24T02:23:19.657Z,58.34
2023-02-24T02:26:18.979Z,61.53
2023-02-24T02:29:31.136Z,72.16
2023-02-24T02:32:38.460Z,68.31
2023-02-24T02:35:19.961Z,61.60
2023-02-24T02:38:03.312Z,53.92
2023-02-24T02:40:42.676Z,52.67
2023-02-24T02:43:40.036Z,55.64
2023-02-24T02:46:40.514Z,56.28
2023-02-24T02:50:00.693Z,57.67
2023-02-24T02:52:45.564Z,58.70
2023-02-24T02:55:26.343Z,68.70
2023-02-24T02:57:56.961Z,73.35
2023-02-24T03:00:37.618Z,65.28
2023-02-24T03:03:16.605Z,57.72
2023-02-24T03:05:57.535Z,51.91
2023-02-24T03:08:34.447Z,54.05
2023-02-24T03:11:06.553Z,56.22
2023-02-24T03:13:41.544Z,57.75
2023-02-24T03:16:13.351Z,58.92
2023-02-24T03:18:53.294Z,59.39
2023-02-24T03:21:37.437Z,60.32
2023-02-24T03:24:07.289Z,66.60
2023-02-24T03:27:07.433Z,73.57
2023-02-24T03:29:53.823Z,63.95
2023-02-24T03:32:33.333Z,59.80
2023-02-24T03:35:29.175Z,53.07
2023-02-24T03:37:59.791Z,53.53
2023-02-24T03:40:32.074Z,54.76
2023-02-24T03:43:16.381Z,57.30
2023-02-24T03:45:46.881Z,58.97
2023-02-24T03:48:16.294Z,60.55
2023-02-24T03:50:45.538Z,65.66
2023-02-24T03:53:52.768Z,70.69
2023-02-24T03:56:58.712Z,64.97
2023-02-24T04:00:22.895Z,60.30
2023-02-24T04:03:11.143Z,52.79
2023-02-24T04:06:06.746Z,53.17
2023-02-24T04:09:26.377Z,55.06
2023-02-24T04:12:09.533Z,57.68
2023-02-24T04:14:53.138Z,59.84
2023-02-24T04:17:30.239Z,66.15
2023-02-24T04:20:21.931Z,71.59
2023-02-24T04:22:59.751Z,64.20
2023-02-24T04:25:28.492Z,60.20
2023-02-24T04:28:00.742Z,53.09
2023-02-24T04:30:36.514Z,52.62
2023-02-24T04:33:05.124Z,56.35
2023-02-24T04:35:34.222Z,59.81
2023-02-24T04:38:01.938Z,59.55
2023-02-24T04:40:30.989Z,59.73
2023-02-24T04:43:00.842Z,66.37
2023-02-24T04:45:32.312Z,70.28
2023-02-24T04:48:03.727Z,66.35
2023-02-24T04:50:36.790Z,61.40
2023-02-24T04:53:10.071Z,55.90
2023-02-24T04:55:48.897Z,57.93
2023-02-24T04:58:21.269Z,60.34
2023-02-24T05:00:52.807Z,63.82
2023-02-24T05:03:29.182Z,69.14
2023-02-24T05:06:01.220Z,64.63
2023-02-24T05:08:31.107Z,59.95
2023-02-24T05:11:05.702Z,55.39
2023-02-24T05:13:40.504Z,56.44
2023-02-24T05:16:10.479Z,60.74
2023-02-24T05:18:38.649Z,65.63
2023-02-24T05:21:29.600Z,66.79
2023-02-24T05:23:59.676Z,62.46
2023-02-24T05:26:28.609Z,57.01
2023-02-24T05:28:59.766Z,56.33
2023-02-24T05:31:32.219Z,57.21
2023-02-24T05:34:08.842Z,63.36
2023-02-24T05:36:40.496Z,67.94
2023-02-24T05:39:12.746Z,65.32
2023-02-24T05:41:43.787Z,62.15
2023-02-24T05:44:23.823Z,54.09
2023-02-24T05:47:02.256Z,51.59
2023-02-24T05:49:34.180Z,54.01
2023-02-24T05:52:10.124Z,58.84
2023-02-24T05:54:42.131Z,63.51
2023-02-24T05:57:17.055Z,67.59
2023-02-24T05:59:45.595Z,63.81
2023-02-24T06:02:17.822Z,59.82
2023-02-24T06:04:54.151Z,54.12
2023-02-24T06:07:34.590Z,55.38
2023-02-24T06:10:04.836Z,56.62
2023-02-24T06:12:36.450Z,63.04
2023-02-24T06:15:08.011Z,67.48
2023-02-24T06:17:40.037Z,63.88
2023-02-24T06:20:15.904Z,59.03
2023-02-24T06:22:44.944Z,52.22
2023-02-24T06:25:12.856Z,54.82
2023-02-24T06:27:43.438Z,60.05
2023-02-24T06:30:15.497Z,64.19
2023-02-24T06:32:44.937Z,66.48
2023-02-24T06:35:14.031Z,60.00
2023-02-24T06:37:43.736Z,58.59
2023-02-24T06:40:18.827Z,59.12
2023-02-24T06:42:55.613Z,64.02
2023-02-24T06:45:24.527Z,65.40
2023-02-24T06:47:53.725Z,61.57
2023-02-24T06:50:23.939Z,59.08
2023-02-24T06:53:00.881Z,60.71
2023-02-24T06:55:29.254Z,64.92
2023-02-24T06:58:04.785Z,65.08
2023-02-24T07:00:39.112Z,59.85
2023-02-24T07:03:15.937Z,55.75
2023-02-24T07:06:16.030Z,57.85
2023-02-24T07:08:44.252Z,61.68
2023-02-24T07:11:14.173Z,65.32
2023-02-24T07:13:42.897Z,62.07
2023-02-24T07:16:12.143Z,57.28
2023-02-24T07:18:43.106Z,57.16
2023-02-24T07:21:17.172Z,60.59
2023-02-24T07:23:48.579Z,63.94
2023-02-24T07:26:20.492Z,64.30
2023-02-24T07:28:50.160Z,58.50
2023-02-24T07:31:22.458Z,53.09
2023-02-24T07:33:56.879Z,53.51
2023-02-24T07:36:31.506Z,53.91
2023-02-24T07:38:59.962Z,54.48
2023-02-24T07:41:30.451Z,57.10
2023-02-24T07:43:59.873Z,60.93
2023-02-24T07:46:29.613Z,68.21
2023-02-24T07:49:00.055Z,64.91
2023-02-24T07:51:29.832Z,58.03
2023-02-24T07:54:00.890Z,52.95
2023-02-24T07:56:33.009Z,53.58
2023-02-24T07:59:11.472Z,55.79
2023-02-24T08:01:39.385Z,57.36
2023-02-24T08:04:12.609Z,59.63
2023-02-24T08:06:50.333Z,60.98
2023-02-24T08:09:21.147Z,70.42
2023-02-24T08:11:55.173Z,69.86
2023-02-24T08:14:33.869Z,63.30
2023-02-24T08:17:05.903Z,52.06
2023-02-24T08:19:39.717Z,50.35
2023-02-24T08:22:20.958Z,52.78
2023-02-24T08:25:01.120Z,55.40
2023-02-24T08:27:33.079Z,53.46
2023-02-24T08:30:02.955Z,58.90
2023-02-24T08:32:44.002Z,64.87
2023-02-24T08:35:20.486Z,66.02
2023-02-24T08:37:53.403Z,57.97
2023-02-24T08:40:31.914Z,52.41
2023-02-24T08:43:18.082Z,50.41
2023-02-24T08:46:07.153Z,54.75
2023-02-24T08:48:42.227Z,58.96
2023-02-24T08:51:28.867Z,60.04
2023-02-24T08:54:11.440Z,63.48
2023-02-24T08:56:43.846Z,60.77
2023-02-24T08:59:37.986Z,54.11
2023-02-24T09:02:28.400Z,54.93
2023-02-24T09:05:07.752Z,53.55
2023-02-24T09:07:41.132Z,56.40
2023-02-24T09:10:18.727Z,59.98
2023-02-24T09:12:49.395Z,58.32
2023-02-24T09:15:20.640Z,60.80
2023-02-24T09:17:50.188Z,68.53
2023-02-24T09:20:47.974Z,65.87
2023-02-24T09:23:20.269Z,54.23
2023-02-24T09:25:54.424Z,49.04
2023-02-24T09:28:26.863Z,49.35
2023-02-24T09:31:04.939Z,50.43
2023-02-24T09:33:41.442Z,53.75
2023-02-24T09:36:28.231Z,55.31
2023-02-24T09:39:01.100Z,55.11
2023-02-24T09:42:02.433Z,55.67
2023-02-24T09:44:45.753Z,56.51
2023-02-24T09:47:48.933Z,57.09
2023-02-24T09:50:46.779Z,59.17
2023-02-24T09:53:18.038Z,60.61
2023-02-24T09:56:16.250Z,67.75
2023-02-24T09:59:00.685Z,71.78
2023-02-24T10:03:00.513Z,64.53
2023-02-24T10:06:12.597Z,51.19
2023-02-24T10:08:58.192Z,52.58
2023-02-24T10:11:33.011Z,53.79
2023-02-24T10:14:19.635Z,57.16
2023-02-24T10:17:09.351Z,56.96
2023-02-24T10:19:41.390Z,58.34
2023-02-24T10:22:30.541Z,62.04
2023-02-24T10:25:11.910Z,67.69
2023-02-24T10:28:08.489Z,61.84
2023-02-24T10:31:04.055Z,53.60
2023-02-24T10:33:45.672Z,52.69
2023-02-24T10:36:36.350Z,54.85
2023-02-24T10:39:27.301Z,56.52
2023-02-24T10:42:15.948Z,56.84
2023-02-24T10:45:09.983Z,60.19
2023-02-24T10:47:44.561Z,59.66
2023-02-24T10:50:55.192Z,65.47
2023-02-24T10:53:29.953Z,72.81
2023-02-24T10:56:26.535Z,60.84
2023-02-24T10:59:25.758Z,52.62
2023-02-24T11:02:30.044Z,50.58
2023-02-24T11:05:25.441Z,52.39
2023-02-24T11:08:38.093Z,52.71
2023-02-24T11:11:31.147Z,54.44
2023-02-24T11:14:21.662Z,56.80
2023-02-24T11:17:11.968Z,56.17
2023-02-24T11:20:04.217Z,57.14
2023-02-24T11:22:40.109Z,59.38
2023-02-24T11:25:27.558Z,60.83
2023-02-24T11:27:57.365Z,62.56
2023-02-24T11:31:02.391Z,69.84
2023-02-24T11:33:47.471Z,61.38
2023-02-24T11:36:37.762Z,53.96
2023-02-24T11:39:30.622Z,51.94
2023-02-24T11:42:11.483Z,51.83
2023-02-24T11:45:27.617Z,53.67
2023-02-24T11:48:19.644Z,52.95
2023-02-24T11:51:06.167Z,57.16
2023-02-24T11:54:17.394Z,59.81
2023-02-24T11:56:53.394Z,59.11
2023-02-24T11:59:39.709Z,57.36
2023-02-24T12:03:18.977Z,56.11
2023-02-24T12:05:58.599Z,55.75
2023-02-24T12:08:36.463Z,56.58
2023-02-24T12:11:19.713Z,56.86
2023-02-24T12:14:19.785Z,58.86
2023-02-24T12:17:18.568Z,58.34
2023-02-24T12:20:23.578Z,59.64
2023-02-24T12:23:25.946Z,68.36
2023-02-24T12:26:18.361Z,63.12
2023-02-24T12:29:33.466Z,54.01
2023-02-24T12:32:38.865Z,51.89
2023-02-24T12:35:37.981Z,53.04
2023-02-24T12:38:47.628Z,56.39
2023-02-24T12:42:09.920Z,58.08
2023-02-24T12:45:15.300Z,60.68
2023-02-24T12:48:31.964Z,68.03
2023-02-24T12:51:23.543Z,64.21
2023-02-24T12:54:13.279Z,56.13
2023-02-24T12:57:25.248Z,52.70
2023-02-24T12:59:56.451Z,53.21
2023-02-24T13:03:10.693Z,55.72
2023-02-24T13:05:57.921Z,58.36
2023-02-24T13:09:12.856Z,60.01
2023-02-24T13:12:02.681Z,59.24
2023-02-24T13:14:35.873Z,60.53
2023-02-24T13:17:22.971Z,63.56
2023-02-24T13:19:55.679Z,65.66
2023-02-24T13:22:30.042Z,55.29
2023-02-24T13:25:03.643Z,54.63
2023-02-24T13:28:03.766Z,55.96
2023-02-24T13:30:44.508Z,57.99
2023-02-24T13:33:17.715Z,57.77
2023-02-24T13:35:49.139Z,60.98
2023-02-24T13:38:38.808Z,60.97
2023-02-24T13:41:24.320Z,63.00
2023-02-24T13:44:34.477Z,61.72
2023-02-24T13:47:27.632Z,55.55
2023-02-24T13:50:21.523Z,57.39
2023-02-24T13:53:10.352Z,59.91
2023-02-24T13:55:57.991Z,60.74
2023-02-24T13:58:47.139Z,61.87
2023-02-24T14:01:18.907Z,60.03
2023-02-24T14:04:20.501Z,56.65
2023-02-24T14:07:01.510Z,57.48
2023-02-24T14:09:39.689Z,58.99
2023-02-24T14:12:25.258Z,59.87
2023-02-24T14:14:54.439Z,60.28
2023-02-24T14:17:29.365Z,60.64
2023-02-24T14:20:20.819Z,60.81
2023-02-24T14:22:58.641Z,61.21
2023-02-24T14:25:38.756Z,61.50
2023-02-24T14:28:06.816Z,61.07
2023-02-24T14:30:40.501Z,60.88
2023-02-24T14:33:27.905Z,61.38
2023-02-24T14:35:57.345Z,61.19
2023-02-24T14:38:39.931Z,61.27
2023-02-24T14:41:27.968Z,60.79
2023-02-24T14:43:57.149Z,60.99
2023-02-24T14:46:25.980Z,61.01
2023-02-24T14:48:58.492Z,60.58
2023-02-24T14:51:36.005Z,59.35
2023-02-24T14:54:11.795Z,60.49
2023-02-24T14:56:41.842Z,60.67
2023-02-24T14:59:38.571Z,60.14
2023-02-24T15:02:19.716Z,59.80
2023-02-24T15:04:49.039Z,60.21
2023-02-24T15:07:26.365Z,59.75
2023-02-24T15:09:56.501Z,59.82
2023-02-24T15:12:50.257Z,59.47
2023-02-24T15:15:22.447Z,59.05
2023-02-24T15:17:58.112Z,59.36
2023-02-24T15:20:38.086Z,59.38
2023-02-24T15:23:06.350Z,59.22
2023-02-24T15:25:46.786Z,59.14
2023-02-24T15:28:35.209Z,59.48
2023-02-24T15:31:17.988Z,59.21
2023-02-24T15:34:00.315Z,59.15
2023-02-24T15:36:35.831Z,59.53
2023-02-24T15:39:18.178Z,58.50
2023-02-24T15:41:49.690Z,58.12
2023-02-24T15:44:37.570Z,58.51
2023-02-24T15:47:27.722Z,57.46
2023-02-24T15:49:56.961Z,57.60
2023-02-24T15:52:29.091Z,58.12
2023-02-24T15:55:00.462Z,58.00
2023-02-24T15:57:32.185Z,58.01
2023-02-24T16:00:12.053Z,57.41
2023-02-24T16:02:41.484Z,57.65
2023-02-24T16:05:15.809Z,57.23
2023-02-24T16:07:48.776Z,56.37
2023-02-24T16:10:22.429Z,55.86
2023-02-24T16:12:57.271Z,54.89
2023-02-24T16:15:39.564Z,55.21
2023-02-24T16:18:21.935Z,55.44
2023-02-24T16:20:56.839Z,54.94
2023-02-24T16:23:26.877Z,54.72
2023-02-24T16:25:59.884Z,54.10
2023-02-24T16:28:31.255Z,54.31
2023-02-24T16:31:00.026Z,54.36
2023-02-24T16:33:34.879Z,53.06
2023-02-24T16:36:13.586Z,53.30
2023-02-24T16:38:45.475Z,53.20
2023-02-24T16:41:13.436Z,53.26
2023-02-24T16:43:42.284Z,53.11
2023-02-24T16:46:18.377Z,53.70
2023-02-24T16:48:50.223Z,53.13
2023-02-24T16:51:18.805Z,53.31
2023-02-24T16:53:46.551Z,53.10
2023-02-24T16:56:15.444Z,53.33
2023-02-24T16:58:43.882Z,53.62
2023-02-24T17:01:24.271Z,53.79
2023-02-24T17:03:58.093Z,54.22
2023-02-24T17:06:26.263Z,53.13
2023-02-24T17:08:56.492Z,52.88
2023-02-24T17:11:28.848Z,53.67
2023-02-24T17:13:57.143Z,53.43
2023-02-24T17:16:25.870Z,53.27
2023-02-24T17:18:54.307Z,52.88
2023-02-24T17:21:22.683Z,53.07
2023-02-24T17:23:51.478Z,52.73
2023-02-24T17:26:19.465Z,53.18
2023-02-24T17:28:47.627Z,53.07
2023-02-24T17:31:15.411Z,52.58
2023-02-24T17:33:43.901Z,53.05
2023-02-24T17:36:12.315Z,52.75
2023-02-24T17:38:40.319Z,52.18
2023-02-24T17:41:08.171Z,51.82
2023-02-24T17:43:35.890Z,52.11
2023-02-24T17:46:07.141Z,51.66
2023-02-24T17:48:35.813Z,51.93
2023-02-24T17:51:04.717Z,52.07
2023-02-24T17:53:33.031Z,51.74
2023-02-24T17:56:05.839Z,52.60
2023-02-24T17:58:34.139Z,52.73
2023-02-24T18:01:05.921Z,52.82
2023-02-24T18:03:36.261Z,52.74
2023-02-24T18:06:12.993Z,52.98
2023-02-24T18:08:43.974Z,52.86
2023-02-24T18:11:19.351Z,53.30
2023-02-24T18:13:51.032Z,52.78
2023-02-24T18:16:20.343Z,53.67
2023-02-24T18:18:50.680Z,53.63
2023-02-24T18:21:19.929Z,53.03
2023-02-24T18:23:49.733Z,53.12
2023-02-24T18:26:23.726Z,52.98
2023-02-24T18:28:53.870Z,53.51
2023-02-24T18:31:25.752Z,53.65
2023-02-24T18:33:57.350Z,53.94
2023-02-24T18:36:27.324Z,53.27
2023-02-24T18:38:57.512Z,52.60
2023-02-24T18:41:26.580Z,52.03
2023-02-24T18:43:57.561Z,52.38
2023-02-24T18:46:27.266Z,52.84
2023-02-24T18:48:57.810Z,52.86
2023-02-24T18:51:28.992Z,52.17
2023-02-24T18:54:00.797Z,51.91
2023-02-24T18:56:31.521Z,52.52
2023-02-24T18:59:01.760Z,52.77
2023-02-24T19:01:36.500Z,53.08
2023-02-24T19:04:12.695Z,53.04
2023-02-24T19:06:49.243Z,52.71
2023-02-24T19:09:21.705Z,53.23
2023-02-24T19:11:52.182Z,53.17
2023-02-24T19:14:20.623Z,53.29
2023-02-24T19:16:50.594Z,54.35
2023-02-24T19:19:18.829Z,54.23
2023-02-24T19:21:48.593Z,54.05
2023-02-24T19:24:17.540Z,54.75
2023-02-24T19:26:47.648Z,54.68
2023-02-24T19:29:17.555Z,54.58
2023-02-24T19:31:46.493Z,54.40
2023-02-24T19:34:15.428Z,54.32
2023-02-24T19:36:43.339Z,53.99
2023-02-24T19:39:16.128Z,53.61
2023-02-24T19:41:45.158Z,53.29
2023-02-24T19:44:15.363Z,53.33
2023-02-24T19:46:46.300Z,53.55
2023-02-24T19:49:14.218Z,53.40
2023-02-24T19:51:43.706Z,52.62
2023-02-24T19:54:14.192Z,53.14
2023-02-24T19:56:44.700Z,52.97
2023-02-24T19:59:12.871Z,54.01
2023-02-24T20:01:43.746Z,53.87
2023-02-24T20:04:14.091Z,54.58
2023-02-24T20:06:43.753Z,54.18
2023-02-24T20:09:15.949Z,53.91
2023-02-24T20:11:46.193Z,53.97
2023-02-24T20:14:17.115Z,54.17
2023-02-24T20:16:46.447Z,53.71
2023-02-24T20:19:15.450Z,54.78
2023-02-24T20:21:44.770Z,55.01
2023-02-24T20:24:16.638Z,54.77
2023-02-24T20:26:47.944Z,55.06
2023-02-24T20:29:21.535Z,55.65
2023-02-24T20:31:50.318Z,55.95
2023-02-24T20:34:19.806Z,55.97
2023-02-24T20:36:47.967Z,56.66
2023-02-24T20:39:15.890Z,56.66
2023-02-24T20:41:44.355Z,56.82
2023-02-24T20:44:12.966Z,57.51
2023-02-24T20:46:41.620Z,57.95
2023-02-24T20:49:14.667Z,58.35
2023-02-24T20:51:43.794Z,58.58
2023-02-24T20:54:14.776Z,58.49
2023-02-24T20:56:45.625Z,59.28
2023-02-24T20:59:21.909Z,59.13
2023-02-24T21:01:50.758Z,60.19
2023-02-24T21:04:21.933Z,60.95
2023-02-24T21:06:52.033Z,60.80
2023-02-24T21:09:19.955Z,60.32
2023-02-24T21:11:48.996Z,61.19
2023-02-24T21:14:20.018Z,60.96
2023-02-24T21:16:47.799Z,61.17
2023-02-24T21:19:17.700Z,61.90
2023-02-24T21:21:45.814Z,67.05
2023-02-24T21:24:15.254Z,71.72
2023-02-24T21:26:43.153Z,62.81
2023-02-24T21:29:11.202Z,53.55
2023-02-24T21:31:39.264Z,51.83
2023-02-24T21:34:10.268Z,52.44
2023-02-24T21:36:39.377Z,54.03
2023-02-24T21:39:07.253Z,55.48
2023-02-24T21:41:38.074Z,56.80
2023-02-24T21:44:06.743Z,56.89
2023-02-24T21:46:34.521Z,58.01
2023-02-24T21:49:02.543Z,57.94
2023-02-24T21:51:30.512Z,59.17
2023-02-24T21:53:58.356Z,60.26
2023-02-24T21:56:29.894Z,59.77
2023-02-24T21:59:09.147Z,60.98
2023-02-24T22:01:44.109Z,62.35
2023-02-24T22:04:18.099Z,73.35
2023-02-24T22:06:46.175Z,68.41
2023-02-24T22:09:20.142Z,65.57
2023-02-24T22:11:49.712Z,57.49
2023-02-24T22:14:18.972Z,49.70
2023-02-24T22:16:47.560Z,49.51
2023-02-24T22:19:16.753Z,50.55
2023-02-24T22:21:46.778Z,52.42
2023-02-24T22:24:18.380Z,53.20
2023-02-24T22:26:46.192Z,56.01
2023-02-24T22:29:14.004Z,57.78
2023-02-24T22:31:44.244Z,57.94
2023-02-24T22:34:17.044Z,60.67
2023-02-24T22:36:45.537Z,61.64
2023-02-24T22:39:16.621Z,67.28
2023-02-24T22:41:47.471Z,60.63
2023-02-24T22:44:19.442Z,53.50
2023-02-24T22:46:48.598Z,53.40
2023-02-24T22:49:17.740Z,54.16
2023-02-24T22:51:48.472Z,55.67
2023-02-24T22:54:17.533Z,55.10
2023-02-24T22:56:46.364Z,55.10
2023-02-24T22:59:14.648Z,58.56
2023-02-24T23:01:43.939Z,59.22
2023-02-24T23:04:19.197Z,58.78
2023-02-24T23:06:50.107Z,59.55
2023-02-24T23:09:19.999Z,60.40
2023-02-24T23:11:48.569Z,61.52
2023-02-24T23:14:17.094Z,61.06
2023-02-24T23:16:54.697Z,59.96
2023-02-24T23:19:24.445Z,60.18
2023-02-24T23:21:54.510Z,60.68
2023-02-24T23:24:22.552Z,60.75
2023-02-24T23:26:54.449Z,61.39
2023-02-24T23:29:27.011Z,61.34
2023-02-24T23:31:57.489Z,61.86
2023-02-24T23:34:28.255Z,61.68
2023-02-24T23:36:56.401Z,61.82
2023-02-24T23:39:24.235Z,62.33
2023-02-24T23:41:56.882Z,64.74
2023-02-24T23:44:25.557Z,69.83
2023-02-24T23:46:57.140Z,65.50
2023-02-24T23:49:25.028Z,52.66
2023-02-24T23:51:54.118Z,48.39
2023-02-24T23:54:22.118Z,49.74
2023-02-24T23:56:49.898Z,51.77
2023-02-24T23:59:19.914Z,53.69
